Latest Weather Observations for Mount Boyce

IDN60801

Issued at 10:35 am EST Monday 20 April 2015 (issued every 30 minutes, with the page automatically refreshed every 10 minutes)

About weather observations | Map of weather stations | Latest weather observations for NSW | Other Formats
Station Details ID: 063292 Name: MOUNT BOYCE AWS Lat: -33.62 Lon: 150.27 Height: 1080.0 m
Data from the previous 72 hours. | See also: Recent months at Mount Boyce
Date/Time
EST
Temp
°C
App
Temp
°C
Dew
Point
Rel
Hum
%
Delta-T
°C
Wind Press
QNH
hPa
Press
MSL
hPa
Rain
since 9 am
mm
Dir
 
Spd
km/h
Gust
km/h
Spd
kts
Gust
kts
20/10:30am 6.9 2.9 6.6 98 0.1 SE 17 30 9 16 - - 3.8
20/10:00am 6.5 2.8 6.2 98 0.1 SSE 15 30 8 16 - - 2.2
20/09:37am 6.5 2.4 6.2 98 0.1 S 17 33 9 18 - - 1.2
20/09:35am 6.4 2.3 6.1 98 0.1 S 17 39 9 21 - - 1.2
20/09:30am 6.4 1.7 6.1 98 0.1 S 20 39 11 21 - - 0.8
20/09:00am 6.2 2.4 5.9 98 0.1 S 15 28 8 15 - - 9.4
20/08:30am 5.6 0.9 5.3 98 0.1 S 19 35 10 19 - - 8.2
20/08:00am 5.6 1.3 5.3 98 0.1 S 17 33 9 18 - - 7.6
20/07:30am 5.3 0.9 5.0 98 0.1 S 17 30 9 16 - - 6.8
20/07:00am 5.1 0.7 4.8 98 0.1 SSE 17 32 9 17 - - 6.6
20/06:30am 5.0 0.6 4.7 98 0.1 S 17 32 9 17 - - 6.4
20/06:00am 4.8 0.0 4.5 98 0.1 S 19 37 10 20 - - 5.6
20/05:30am 4.7 0.2 4.4 98 0.1 S 17 33 9 18 - - 5.4
20/05:00am 4.9 0.1 4.6 98 0.1 S 19 41 10 22 - - 5.2
20/04:30am 5.0 2.5 4.7 98 0.1 S 7 19 4 10 - - 5.2
20/04:00am 4.8 0.4 4.5 98 0.1 S 17 32 9 17 - - 4.8
20/03:32am 5.0 1.3 4.7 98 0.1 S 13 24 7 13 - - 4.8
20/03:30am 5.0 1.3 4.7 98 0.1 S 13 20 7 11 - - 4.8
20/03:00am 4.9 0.8 4.6 98 0.1 S 15 32 8 17 - - 4.4
20/02:30am 5.0 0.6 4.7 98 0.1 SSE 17 30 9 16 - - 3.6
20/02:00am 5.2 0.8 4.9 98 0.1 S 17 37 9 20 - - 3.2
20/01:30am 5.2 0.8 4.9 98 0.1 S 17 33 9 18 - - 2.8
20/01:00am 5.2 1.2 4.9 98 0.1 S 15 30 8 16 - - 2.8
20/12:30am 5.2 1.6 4.9 98 0.1 S 13 24 7 13 - - 2.6
20/12:00am 5.2 1.6 4.9 98 0.1 SSW 13 28 7 15 - - 2.6
 
Date/Time
EST
Temp
°C
App
Temp
°C
Dew
Point
Rel
Hum
%
Delta-T
°C
Wind Press
QNH
hPa
Press
MSL
hPa
Rain
since 9 am
mm
Dir
 
Spd
km/h
Gust
km/h
Spd
kts
Gust
kts
19/11:30pm 5.2 1.2 4.9 98 0.1 SSW 15 24 8 13 - - 2.2
19/11:00pm 5.1 1.5 4.8 98 0.1 S 13 24 7 13 - - 2.0
19/10:30pm 5.1 0.7 4.8 98 0.1 S 17 28 9 15 - - 1.8
19/10:00pm 5.1 1.8 4.8 98 0.1 SW 11 17 6 9 - - 1.8
19/09:30pm 5.1 1.4 4.7 97 0.2 SW 13 20 7 11 - - 1.2
19/09:00pm 5.2 0.8 4.8 97 0.2 S 17 26 9 14 - - 0.8
19/08:30pm 5.2 0.8 4.6 96 0.3 SSE 17 32 9 17 - - 0.6
19/08:01pm 6.1 2.5 5.2 94 0.4 S 13 24 7 13 - - 0.6
19/08:00pm 6.2 2.3 5.3 94 0.4 S 15 24 8 13 - - 0.6
19/07:30pm 8.5 6.6 7.7 95 0.4 E 7 17 4 9 - - 0.0
19/07:00pm 8.9 6.7 8.0 94 0.5 E 9 22 5 12 - - 0.0
19/06:30pm 9.5 7.4 8.3 92 0.6 E 9 15 5 8 - - 0.0
19/06:02pm 10.3 8.3 8.6 89 0.9 E 9 17 5 9 - - 0.0
19/06:00pm 10.4 8.4 8.5 88 1.0 E 9 17 5 9 - - 0.0
19/05:54pm 10.9 9.3 8.8 87 1.1 E 7 13 4 7 - - 0.0
19/05:30pm 11.5 10.7 6.6 72 2.5 CALM 0 4 0 2 - - 0.0
19/05:00pm 12.1 10.4 7.6 74 2.3 WNW 6 9 3 5 - - 0.0
19/04:30pm 13.1 12.3 6.5 64 3.4 CALM 0 0 0 0 - - 0.0
19/04:00pm 14.8 13.6 6.6 58 4.2 SW 2 7 1 4 - - 0.0
19/03:30pm 15.5 13.7 7.8 60 4.1 SSW 7 11 4 6 - - 0.0
19/03:00pm 14.8 12.8 7.1 60 4.0 S 7 13 4 7 - - 0.0
19/02:30pm 16.3 14.4 7.5 56 4.7 WSW 7 13 4 7 - - 0.0
19/02:00pm 15.4 12.1 6.4 55 4.6 W 13 17 7 9 - - 0.0
19/01:30pm 16.2 13.1 7.2 55 4.7 SW 13 20 7 11 - - 0.0
19/01:00pm 14.6 11.9 7.4 62 3.8 SSW 11 17 6 9 - - 0.0
19/12:30pm 13.6 11.3 7.4 66 3.2 SSW 9 17 5 9 - - 0.0
19/12:00pm 13.7 11.6 6.6 62 3.6 WSW 7 15 4 8 - - 0.0
19/11:30am 14.1 10.7 7.6 65 3.4 W 15 20 8 11 - - 0.0
19/11:00am 13.1 10.0 7.1 67 3.1 W 13 22 7 12 - - 0.0
19/10:30am 12.5 8.6 7.0 69 2.8 WSW 17 26 9 14 - - 0.0
19/10:00am 11.6 7.8 7.7 77 2.0 W 17 22 9 12 - - 0.0
19/09:30am 10.8 6.5 7.1 78 1.9 W 19 28 10 15 - - 0.0
19/09:00am 10.0 5.6 6.7 80 1.6 W 19 26 10 14 - - 5.4
19/08:30am 9.3 4.6 6.0 80 1.6 WSW 20 28 11 15 - - 5.4
19/08:00am 8.6 3.9 5.0 78 1.7 WSW 19 24 10 13 - - 5.4
19/07:30am 8.2 3.4 4.6 78 1.7 WSW 19 28 10 15 - - 5.4
19/07:00am 8.4 4.3 6.0 85 1.2 WSW 17 24 9 13 - - 5.4
19/06:30am 8.5 3.5 8.2 98 0.2 W 24 33 13 18 - - 5.4
19/06:29am 8.5 3.5 8.2 98 0.2 W 24 33 13 18 - - 5.4
19/06:00am 10.3 5.1 10.1 99 0.1 WSW 28 37 15 20 - - 5.4
19/05:30am 11.0 7.1 10.8 99 0.1 WSW 22 37 12 20 - - 5.4
19/05:00am 11.1 7.2 10.9 99 0.1 WSW 22 30 12 16 - - 5.2
19/04:30am 11.0 7.1 10.8 99 0.1 W 22 33 12 18 - - 5.2
19/04:20am 11.0 7.1 10.8 99 0.1 W 22 35 12 19 - - 5.2
19/04:00am 11.1 7.6 10.8 98 0.2 W 20 32 11 17 - - 5.2
19/03:30am 11.2 7.7 10.9 98 0.2 WSW 20 35 11 19 - - 5.2
19/03:00am 11.2 7.7 11.0 99 0.1 WSW 20 35 11 19 - - 5.2
19/02:30am 11.3 7.5 11.1 99 0.1 W 22 32 12 17 - - 5.2
19/02:25am 11.3 7.1 11.1 99 0.1 W 24 35 13 19 - - 5.2
19/02:00am 11.3 8.1 11.1 99 0.1 WSW 19 28 10 15 - - 5.2
19/01:30am 11.3 7.8 11.0 98 0.2 WSW 20 28 11 15 - - 5.2
19/01:00am 11.5 8.3 11.2 98 0.2 W 19 32 10 17 - - 5.2
19/12:57am 11.6 8.2 11.3 98 0.2 W 20 30 11 16 - - 5.2
19/12:45am 11.6 7.5 11.3 98 0.2 W 24 35 13 19 - - 5.2
19/12:30am 11.7 7.6 11.4 98 0.2 W 24 37 13 20 - - 5.2
19/12:05am 12.0 8.0 11.7 98 0.2 W 24 35 13 19 - - 5.2
19/12:00am 12.1 8.4 11.6 97 0.3 W 22 32 12 17 - - 5.2
 
Date/Time
EST
Temp
°C
App
Temp
°C
Dew
Point
Rel
Hum
%
Delta-T
°C
Wind Press
QNH
hPa
Press
MSL
hPa
Rain
since 9 am
mm
Dir
 
Spd
km/h
Gust
km/h
Spd
kts
Gust
kts
18/11:30pm 12.4 8.8 11.9 97 0.3 W 22 39 12 21 - - 5.2
18/11:00pm 12.5 8.5 11.9 96 0.3 W 24 37 13 20 - - 5.2
18/10:57pm 12.5 8.5 11.9 96 0.3 W 24 37 13 20 - - 5.2
18/10:30pm 12.5 8.5 11.9 96 0.3 W 24 37 13 20 - - 5.0
18/10:00pm 12.6 7.9 12.1 97 0.3 WNW 28 44 15 24 - - 5.0
18/09:39pm 12.7 8.5 12.4 98 0.2 W 26 46 14 25 - - 4.6
18/09:34pm 12.8 8.6 12.5 98 0.2 W 26 46 14 25 - - 4.6
18/09:30pm 12.8 9.0 12.5 98 0.2 W 24 39 13 21 - - 4.6
18/09:03pm 12.9 8.0 12.4 97 0.3 W 30 50 16 27 - - 4.2
18/09:01pm 12.9 8.0 12.4 97 0.3 W 30 50 16 27 - - 4.2
18/09:00pm 12.9 8.3 12.4 97 0.3 W 28 43 15 23 - - 4.2
18/08:43pm 13.0 8.4 12.4 96 0.3 W 28 46 15 25 - - 3.0
18/08:30pm 13.0 9.1 12.2 95 0.5 WNW 24 39 13 21 - - 2.6
18/08:20pm 13.1 8.8 12.2 94 0.5 WNW 26 43 14 23 - - 2.0
18/08:04pm 13.2 8.5 11.9 92 0.7 WNW 28 44 15 24 - - 1.6
18/08:00pm 13.0 8.2 11.6 91 0.8 WNW 28 50 15 27 - - 1.6
18/07:39pm 15.3 11.8 12.1 81 1.8 WNW 22 65 12 35 - - 0.6
18/07:30pm 16.4 14.4 12.6 78 2.2 NW 15 28 8 15 - - 0.0
18/07:00pm 16.6 14.1 12.4 76 2.4 NW 17 30 9 16 - - 0.0
18/06:30pm 16.7 14.3 12.5 76 2.4 NW 17 30 9 16 - - 0.0
18/06:00pm 16.6 14.9 12.6 77 2.3 NW 13 26 7 14 - - 0.0
18/05:30pm 16.5 14.9 12.8 79 2.2 NW 13 26 7 14 - - 0.0
18/05:00pm 16.9 15.4 13.2 79 2.2 NNW 13 20 7 11 - - 0.0
18/04:30pm 17.1 16.4 13.2 78 2.3 NW 9 17 5 9 - - 0.0
18/04:00pm 17.1 15.1 12.8 76 2.5 NW 15 26 8 14 - - 0.0
18/03:30pm 16.9 15.8 13.0 78 2.3 NNW 11 20 6 11 - - 0.0
18/03:00pm 16.8 15.2 12.7 77 2.4 NW 13 22 7 12 - - 0.0
18/02:30pm 16.8 15.2 12.7 77 2.4 NW 13 28 7 15 - - 0.0
18/02:00pm 16.9 14.5 12.6 76 2.5 WNW 17 28 9 15 - - 0.0
18/01:30pm 16.9 13.8 12.2 74 2.7 WNW 20 35 11 19 - - 0.0
18/01:00pm 17.0 14.1 12.3 74 2.7 WNW 19 32 10 17 - - 0.0
18/12:30pm 17.3 14.6 13.0 76 2.5 WNW 19 32 10 17 - - 0.0
18/12:00pm 17.4 15.1 12.9 75 2.6 WNW 17 30 9 16 - - 0.0
18/11:30am 17.9 15.5 13.8 77 2.5 W 19 32 10 17 - - 0.0
18/11:00am 16.8 14.2 13.1 79 2.2 W 19 33 10 18 - - 0.0
18/10:30am 16.6 14.3 13.1 80 2.1 W 17 24 9 13 - - 0.0
18/10:00am 16.2 13.2 12.7 80 2.0 W 20 32 11 17 - - 0.0
18/09:30am 16.3 13.3 12.5 78 2.2 WNW 20 37 11 20 - - 0.0
18/09:00am 16.0 13.2 12.7 81 1.9 WNW 19 32 10 17 - - 0.6
18/08:30am 15.6 13.5 12.5 82 1.8 NW 15 33 8 18 - - 0.6
18/08:00am 15.5 13.0 12.4 82 1.8 NW 17 33 9 18 - - 0.6
18/07:30am 15.1 12.2 12.4 84 1.6 WNW 19 32 10 17 - - 0.6
18/07:00am 15.1 13.0 12.4 84 1.6 WNW 15 33 8 18 - - 0.6
18/06:30am 15.0 12.2 12.5 85 1.4 WNW 19 35 10 19 - - 0.6
18/06:00am 14.8 12.8 12.8 88 1.2 WNW 15 24 8 13 - - 0.6
18/05:30am 15.5 12.8 13.0 85 1.5 NW 19 33 10 18 - - 0.6
18/05:00am 15.6 13.4 13.4 87 1.3 NW 17 28 9 15 - - 0.6
18/04:30am 15.3 14.7 13.5 89 1.1 NW 9 17 5 9 - - 0.6
18/04:00am 15.7 13.8 14.1 90 1.0 N 17 24 9 13 - - 0.6
18/03:46am 15.2 14.1 14.2 94 0.6 NNE 13 24 7 13 - - 0.6
18/03:30am 14.9 14.1 14.1 95 0.5 NE 11 22 6 12 - - 0.6
18/03:20am 14.8 14.4 14.0 95 0.5 NNE 9 17 5 9 - - 0.6
18/03:00am 15.1 14.1 14.6 97 0.3 N 13 24 7 13 - - 0.6
18/02:59am 15.1 14.1 14.6 97 0.3 N 13 24 7 13 - - 0.6
18/02:30am 14.8 13.8 14.6 99 0.1 NNE 13 22 7 12 - - 0.6
18/02:21am 14.8 13.4 14.6 99 0.1 NNE 15 24 8 13 - - 0.6
18/02:00am 14.6 14.3 14.4 99 0.1 NNE 9 19 5 10 - - 0.6
18/01:30am 14.4 14.6 14.2 99 0.1 NNE 6 13 3 7 - - 0.6
18/01:00am 14.7 13.7 14.5 99 0.1 NE 13 26 7 14 - - 0.6
18/12:30am 14.8 13.4 14.6 99 0.1 NE 15 30 8 16 - - 0.6
18/12:00am 14.8 13.4 14.6 99 0.1 NE 15 24 8 13 - - 0.6
 
Date/Time
EST
Temp
°C
App
Temp
°C
Dew
Point
Rel
Hum
%
Delta-T
°C
Wind Press
QNH
hPa
Press
MSL
hPa
Rain
since 9 am
mm
Dir
 
Spd
km/h
Gust
km/h
Spd
kts
Gust
kts
17/11:30pm 14.8 14.2 14.6 99 0.1 ENE 11 19 6 10 - - 0.6
17/11:00pm 14.9 13.9 14.7 99 0.1 NE 13 24 7 13 - - 0.6
17/10:30pm 15.1 14.2 14.9 99 0.1 NE 13 22 7 12 - - 0.6
17/10:00pm 15.1 14.2 14.9 99 0.1 NE 13 20 7 11 - - 0.6
17/09:30pm 15.1 14.6 14.9 99 0.1 ENE 11 19 6 10 - - 0.6
17/09:00pm 15.1 15.0 14.9 99 0.1 ENE 9 15 5 8 - - 0.6
17/08:30pm 15.0 14.8 14.7 98 0.2 ENE 9 19 5 10 - - 0.6
17/08:00pm 15.1 14.9 14.8 98 0.2 ENE 9 17 5 9 - - 0.6
17/07:30pm 15.1 14.9 14.8 98 0.2 ENE 9 15 5 8 - - 0.6
17/07:00pm 15.1 15.3 14.8 98 0.2 ENE 7 15 4 8 - - 0.6
17/06:30pm 15.1 15.3 14.6 97 0.3 ENE 7 15 4 8 - - 0.6
17/06:00pm 15.2 15.4 14.7 97 0.3 ENE 7 13 4 7 - - 0.6
17/05:30pm 15.4 15.6 14.8 96 0.4 ENE 7 13 4 7 - - 0.6
17/05:00pm 15.5 15.6 14.5 94 0.6 ENE 7 13 4 7 - - 0.6
17/04:42pm 15.6 16.3 14.5 93 0.7 ENE 4 9 2 5 - - 0.6
17/04:30pm 15.8 16.5 14.5 92 0.8 NE 4 9 2 5 - - 0.6
17/04:05pm 16.0 16.4 14.7 92 0.8 ENE 6 9 3 5 - - 0.6
17/04:00pm 16.0 16.4 14.7 92 0.8 ENE 6 11 3 6 - - 0.6
17/03:40pm 16.0 16.3 14.5 91 0.9 ENE 6 9 3 5 - - 0.6
17/03:30pm 16.2 16.5 14.6 90 1.0 ENE 6 9 3 5 - - 0.6
17/03:00pm 16.8 18.4 14.8 88 1.2 CALM 0 0 0 0 - - 0.6
17/02:42pm 17.2 18.9 15.2 88 1.2 CALM 0 0 0 0 - - 0.6
17/02:30pm 17.2 18.5 15.2 88 1.2 W 2 7 1 4 - - 0.6
17/02:00pm 16.5 17.4 14.0 85 1.5 NW 2 7 1 4 - - 0.6
17/01:33pm 16.4 16.7 14.6 89 1.1 W 6 9 3 5 - - 0.6
17/01:30pm 16.3 16.7 14.7 90 1.0 WNW 6 9 3 5 - - 0.6
17/01:00pm 15.8 15.9 14.5 92 0.8 W 7 13 4 7 - - 0.6
17/12:38pm 16.1 16.2 15.5 96 0.4 W 9 13 5 7 - - 0.6
17/12:30pm 15.8 15.8 15.2 96 0.4 WSW 9 13 5 7 - - 0.6
17/12:00pm 15.3 16.5 14.8 97 0.3 W 2 9 1 5 - - 0.6
17/11:42am 15.3 15.6 15.0 98 0.2 WNW 7 11 4 6 - - 0.6
17/11:30am 15.5 16.8 15.2 98 0.2 NNW 2 9 1 5 - - 0.6
17/11:21am 15.0 15.8 14.7 98 0.2 NNW 4 9 2 5 - - 0.6
17/11:00am 14.8 14.9 14.5 98 0.2 N 7 11 4 6 - - 0.6

Other Formats:

Comma delimited format used in spreadsheet applications
http://www.bom.gov.au/fwo/IDN60801/IDN60801.94743.axf

JavaScript Object Notation format (JSON) in row-major order
http://www.bom.gov.au/fwo/IDN60801/IDN60801.94743.json